createdAt,value
2023-05-22T00:00:16.506Z,16.83
2023-05-22T00:01:51.759Z,15.17
2023-05-22T00:03:25.226Z,16.90
2023-05-22T00:04:58.731Z,15.97
2023-05-22T00:06:33.961Z,15.30
2023-05-22T00:08:11.473Z,15.57
2023-05-22T00:09:44.215Z,15.40
2023-05-22T00:11:16.260Z,15.37
2023-05-22T00:12:49.158Z,15.40
2023-05-22T00:14:21.940Z,15.73
2023-05-22T00:15:54.674Z,16.07
2023-05-22T00:17:30.621Z,16.57
2023-05-22T00:19:03.776Z,16.10
2023-05-22T00:20:38.855Z,16.57
2023-05-22T00:22:12.252Z,15.87
2023-05-22T00:23:45.607Z,16.20
2023-05-22T00:25:20.250Z,16.00
2023-05-22T00:26:52.988Z,16.07
2023-05-22T00:28:24.839Z,15.90
2023-05-22T00:29:57.681Z,16.77
2023-05-22T00:31:30.465Z,16.27
2023-05-22T00:33:04.812Z,15.40
2023-05-22T00:34:37.623Z,15.63
2023-05-22T00:36:10.779Z,17.17
2023-05-22T00:37:44.708Z,16.50
2023-05-22T00:39:17.474Z,16.70
2023-05-22T00:40:49.303Z,16.63
2023-05-22T00:42:22.112Z,16.37
2023-05-22T00:43:55.036Z,16.10
2023-05-22T00:45:27.802Z,17.10
2023-05-22T00:47:00.978Z,19.20
2023-05-22T00:48:35.135Z,17.00
2023-05-22T00:50:10.866Z,17.53
2023-05-22T00:51:43.821Z,17.13
2023-05-22T00:53:15.695Z,16.77
2023-05-22T00:54:49.483Z,17.13
2023-05-22T00:56:22.801Z,18.23
2023-05-22T00:57:55.087Z,17.73
2023-05-22T00:59:28.107Z,17.00
2023-05-22T01:01:01.040Z,16.73
2023-05-22T01:02:34.392Z,17.67
2023-05-22T01:04:11.343Z,18.73
2023-05-22T01:05:43.642Z,18.27
2023-05-22T01:07:17.675Z,18.00
2023-05-22T01:08:49.494Z,16.43
2023-05-22T01:10:22.359Z,16.77
2023-05-22T01:12:06.185Z,17.00
2023-05-22T01:13:46.964Z,16.77
2023-05-22T01:15:31.352Z,18.40
2023-05-22T01:17:13.660Z,18.43
2023-05-22T01:18:55.599Z,18.33
2023-05-22T01:20:33.205Z,19.67
2023-05-22T01:22:16.399Z,18.87
2023-05-22T01:24:11.598Z,18.13
2023-05-22T01:26:03.520Z,18.53
2023-05-22T01:27:57.008Z,18.60
2023-05-22T01:29:46.492Z,18.13
2023-05-22T01:31:21.869Z,19.03
2023-05-22T01:32:57.357Z,19.27
2023-05-22T01:34:32.710Z,18.87
2023-05-22T01:36:09.584Z,19.60
2023-05-22T01:37:44.588Z,18.73
2023-05-22T01:39:17.176Z,19.03
2023-05-22T01:40:50.055Z,18.43
2023-05-22T01:42:23.218Z,18.90
2023-05-22T01:43:55.984Z,19.23
2023-05-22T01:45:28.762Z,19.03
2023-05-22T01:47:05.222Z,21.07
2023-05-22T01:48:38.029Z,18.27
2023-05-22T01:50:12.090Z,17.33
2023-05-22T01:51:52.904Z,19.63
2023-05-22T01:53:31.885Z,20.00
2023-05-22T01:55:13.389Z,19.20
2023-05-22T01:56:54.790Z,20.10
2023-05-22T01:58:35.305Z,20.10
2023-05-22T02:00:10.829Z,20.07
2023-05-22T02:01:44.735Z,20.00
2023-05-22T02:03:23.040Z,19.03
2023-05-22T02:04:59.813Z,19.93
2023-05-22T02:06:33.175Z,20.53
2023-05-22T02:08:07.771Z,19.13
2023-05-22T02:09:42.050Z,20.07
2023-05-22T02:11:16.491Z,19.60
2023-05-22T02:12:49.831Z,20.50
2023-05-22T02:14:23.238Z,21.03
2023-05-22T02:15:57.380Z,20.43
2023-05-22T02:17:30.202Z,20.37
2023-05-22T02:19:06.464Z,18.73
2023-05-22T02:20:39.876Z,18.63
2023-05-22T02:22:13.761Z,19.60
2023-05-22T02:23:46.744Z,23.83
2023-05-22T02:25:19.633Z,20.53
2023-05-22T02:26:52.419Z,22.97
2023-05-22T02:28:24.537Z,19.90
2023-05-22T02:29:57.283Z,18.37
2023-05-22T02:31:29.353Z,21.00
2023-05-22T02:33:05.418Z,20.97
2023-05-22T02:34:39.520Z,19.57
2023-05-22T02:36:12.938Z,20.30
2023-05-22T02:37:45.684Z,21.13
2023-05-22T02:39:17.768Z,19.30
2023-05-22T02:40:50.541Z,20.63
2023-05-22T02:42:22.329Z,21.23
2023-05-22T02:43:55.101Z,20.30
2023-05-22T02:45:27.873Z,21.17
2023-05-22T02:47:00.651Z,21.90
2023-05-22T02:48:32.497Z,20.13
2023-05-22T02:50:07.939Z,21.03
2023-05-22T02:51:40.729Z,21.17
2023-05-22T02:53:14.322Z,21.60
2023-05-22T02:54:47.059Z,19.10
2023-05-22T02:56:20.933Z,19.73
2023-05-22T02:57:53.706Z,20.23
2023-05-22T02:59:26.442Z,21.20
2023-05-22T03:00:59.831Z,22.27
2023-05-22T03:02:32.532Z,21.53
2023-05-22T03:04:06.274Z,21.53
2023-05-22T03:05:40.472Z,21.07
2023-05-22T03:07:12.360Z,21.10
2023-05-22T03:08:45.185Z,22.57
2023-05-22T03:10:18.631Z,24.23
2023-05-22T03:11:51.440Z,21.23
2023-05-22T03:13:24.261Z,18.93
2023-05-22T03:14:57.014Z,18.90
2023-05-22T03:16:29.818Z,19.43
2023-05-22T03:18:03.008Z,20.97
2023-05-22T03:19:35.792Z,21.63
2023-05-22T03:21:09.945Z,20.13
2023-05-22T03:22:42.704Z,20.03
2023-05-22T03:24:15.458Z,21.43
2023-05-22T03:25:48.545Z,19.50
2023-05-22T03:27:21.279Z,21.73
2023-05-22T03:28:53.148Z,20.60
2023-05-22T03:30:25.952Z,20.90
2023-05-22T03:31:59.845Z,20.63
2023-05-22T03:33:32.683Z,22.57
2023-05-22T03:35:06.513Z,20.80
2023-05-22T03:36:41.256Z,20.87
2023-05-22T03:38:13.997Z,22.30
2023-05-22T03:39:46.738Z,20.77
2023-05-22T03:41:19.509Z,22.37
2023-05-22T03:42:52.281Z,20.97
2023-05-22T03:44:25.140Z,20.50
2023-05-22T03:45:59.207Z,21.63
2023-05-22T03:47:32.069Z,22.53
2023-05-22T03:49:04.833Z,22.13
2023-05-22T03:50:37.829Z,22.77
2023-05-22T03:52:12.064Z,21.10
2023-05-22T03:53:44.800Z,21.43
2023-05-22T03:55:17.017Z,22.63
2023-05-22T03:56:49.751Z,21.43
2023-05-22T03:58:21.568Z,22.10
2023-05-22T03:59:54.400Z,23.73
2023-05-22T04:01:27.382Z,23.23
2023-05-22T04:03:00.257Z,24.07
2023-05-22T04:04:38.349Z,22.30
2023-05-22T04:06:13.561Z,20.57
2023-05-22T04:07:46.682Z,21.30
2023-05-22T04:09:20.559Z,20.47
2023-05-22T04:10:54.373Z,19.97
2023-05-22T04:12:27.191Z,20.90
2023-05-22T04:14:04.439Z,22.40
2023-05-22T04:15:36.491Z,21.43
2023-05-22T04:17:09.357Z,21.63
2023-05-22T04:18:42.084Z,22.03
2023-05-22T04:20:14.825Z,26.53
2023-05-22T04:21:47.592Z,21.63
2023-05-22T04:23:21.386Z,21.37
2023-05-22T04:24:54.158Z,23.03
2023-05-22T04:26:29.541Z,19.40
2023-05-22T04:28:03.856Z,23.80
2023-05-22T04:29:36.415Z,23.30
2023-05-22T04:31:09.187Z,21.83
2023-05-22T04:32:42.034Z,20.27
2023-05-22T04:34:16.976Z,21.97
2023-05-22T04:35:49.692Z,20.83
2023-05-22T04:37:21.495Z,21.03
2023-05-22T04:38:55.959Z,20.60
2023-05-22T04:40:29.478Z,20.57
2023-05-22T04:42:05.759Z,20.77
2023-05-22T04:43:38.673Z,22.07
2023-05-22T04:45:13.852Z,21.40
2023-05-22T04:46:47.059Z,22.17
2023-05-22T04:48:19.421Z,21.67
2023-05-22T04:49:52.553Z,22.77
2023-05-22T04:51:25.379Z,24.10
2023-05-22T04:52:59.495Z,21.57
2023-05-22T04:54:33.992Z,22.33
2023-05-22T04:56:07.530Z,22.93
2023-05-22T04:57:40.474Z,22.50
2023-05-22T04:59:16.121Z,21.23
2023-05-22T05:00:49.408Z,21.83
2023-05-22T05:02:22.210Z,22.23
2023-05-22T05:03:55.049Z,23.60
2023-05-22T05:05:27.831Z,24.90
2023-05-22T05:07:02.339Z,23.87
2023-05-22T05:08:35.139Z,20.63
2023-05-22T05:10:10.388Z,22.43
2023-05-22T05:11:43.142Z,21.13
2023-05-22T05:13:15.896Z,21.80
2023-05-22T05:14:48.658Z,20.67
2023-05-22T05:16:21.631Z,22.03
2023-05-22T05:17:54.428Z,22.53
2023-05-22T05:19:27.883Z,21.77
2023-05-22T05:21:00.947Z,22.53
2023-05-22T05:22:33.768Z,21.33
2023-05-22T05:24:07.167Z,23.43
2023-05-22T05:25:41.253Z,23.17
2023-05-22T05:27:14.102Z,23.67
2023-05-22T05:28:46.905Z,25.90
2023-05-22T05:30:20.603Z,22.27
2023-05-22T05:31:53.647Z,25.30
2023-05-22T05:33:26.479Z,23.07
2023-05-22T05:34:59.470Z,22.53
2023-05-22T05:36:32.334Z,23.83
2023-05-22T05:38:05.073Z,21.30
2023-05-22T05:39:37.842Z,23.17
2023-05-22T05:41:11.925Z,21.27
2023-05-22T05:42:44.654Z,21.70
2023-05-22T05:44:17.393Z,22.07
2023-05-22T05:45:50.198Z,20.93
2023-05-22T05:47:23.934Z,19.20
2023-05-22T05:48:58.962Z,19.43
2023-05-22T05:50:31.694Z,22.30
2023-05-22T05:52:05.119Z,20.30
2023-05-22T05:53:37.918Z,19.47
2023-05-22T05:55:11.222Z,20.63
2023-05-22T05:56:45.372Z,21.03
2023-05-22T05:58:18.157Z,20.30
2023-05-22T05:59:50.879Z,22.23
2023-05-22T06:01:24.903Z,22.77
2023-05-22T06:02:57.741Z,20.47
2023-05-22T06:04:30.517Z,21.97
2023-05-22T06:06:03.454Z,22.07
2023-05-22T06:07:39.551Z,20.63
2023-05-22T06:09:12.685Z,22.20
2023-05-22T06:10:45.454Z,22.07
2023-05-22T06:12:19.597Z,19.77
2023-05-22T06:13:52.322Z,20.60
2023-05-22T06:15:25.109Z,21.07
2023-05-22T06:16:58.252Z,19.57
2023-05-22T06:18:31.015Z,20.43
2023-05-22T06:20:04.598Z,22.13
2023-05-22T06:21:37.336Z,21.23
2023-05-22T06:23:10.144Z,22.83
2023-05-22T06:24:42.900Z,20.73
2023-05-22T06:26:15.885Z,22.80
2023-05-22T06:27:49.986Z,21.43
2023-05-22T06:29:22.893Z,19.67
2023-05-22T06:30:57.087Z,20.07
2023-05-22T06:32:29.049Z,20.27
2023-05-22T06:34:02.391Z,20.90
2023-05-22T06:35:35.578Z,19.50
2023-05-22T06:37:08.661Z,19.93
2023-05-22T06:38:41.691Z,20.87
2023-05-22T06:40:14.436Z,20.60
2023-05-22T06:41:47.163Z,20.80
2023-05-22T06:43:21.307Z,18.57
2023-05-22T06:44:54.055Z,19.23
2023-05-22T06:46:26.823Z,17.13
2023-05-22T06:47:59.620Z,16.67
2023-05-22T06:49:32.373Z,16.87
2023-05-22T06:51:05.478Z,17.23
2023-05-22T06:52:38.899Z,18.57
2023-05-22T06:54:12.427Z,16.97
2023-05-22T06:55:45.189Z,16.83
2023-05-22T06:57:17.966Z,16.40
2023-05-22T06:58:52.044Z,16.13
2023-05-22T07:00:25.263Z,16.70
2023-05-22T07:01:57.991Z,17.53
2023-05-22T07:03:30.740Z,16.50
2023-05-22T07:05:03.495Z,16.50
2023-05-22T07:06:38.931Z,17.10
2023-05-22T07:08:12.188Z,15.57
2023-05-22T07:09:44.983Z,16.33
2023-05-22T07:11:17.725Z,16.93
2023-05-22T07:12:50.501Z,15.97
2023-05-22T07:14:24.568Z,20.07
2023-05-22T07:15:57.416Z,16.33
2023-05-22T07:17:30.236Z,16.17
2023-05-22T07:19:03.457Z,16.03
2023-05-22T07:20:36.357Z,16.10
2023-05-22T07:22:09.108Z,16.43
2023-05-22T07:23:41.885Z,16.60
2023-05-22T07:25:14.624Z,15.80
2023-05-22T07:26:47.420Z,16.17
2023-05-22T07:28:20.283Z,15.77
2023-05-22T07:29:54.449Z,15.60
2023-05-22T07:31:27.406Z,15.87
2023-05-22T07:33:00.309Z,15.00
2023-05-22T07:34:34.216Z,16.30
2023-05-22T07:36:07.548Z,17.50
2023-05-22T07:37:41.251Z,15.23
2023-05-22T07:39:14.022Z,15.43
2023-05-22T07:40:46.816Z,14.90
2023-05-22T07:42:19.632Z,15.07
2023-05-22T07:43:52.373Z,15.60
2023-05-22T07:45:26.755Z,16.73
2023-05-22T07:46:59.585Z,15.40
2023-05-22T07:48:32.376Z,17.60
2023-05-22T07:50:05.915Z,15.97
2023-05-22T07:51:38.688Z,15.50
2023-05-22T07:53:11.522Z,16.20
2023-05-22T07:54:45.444Z,16.43
2023-05-22T07:56:18.709Z,15.57
2023-05-22T07:57:52.793Z,15.90
2023-05-22T07:59:25.895Z,15.30
2023-05-22T08:01:01.440Z,15.90
2023-05-22T08:02:34.488Z,14.90
2023-05-22T08:04:08.000Z,15.80
2023-05-22T08:05:40.967Z,15.03
2023-05-22T08:07:13.766Z,15.83
2023-05-22T08:08:46.522Z,16.93
2023-05-22T08:10:19.986Z,15.43
2023-05-22T08:11:52.710Z,16.03
2023-05-22T08:13:25.541Z,16.10
2023-05-22T08:14:58.299Z,15.67
2023-05-22T08:16:32.942Z,16.10
2023-05-22T08:18:05.753Z,18.37
2023-05-22T08:19:38.931Z,16.53
2023-05-22T08:21:12.033Z,17.57
2023-05-22T08:22:44.839Z,15.93
2023-05-22T08:24:17.571Z,15.40
2023-05-22T08:25:50.599Z,15.83
2023-05-22T08:27:23.422Z,17.30
2023-05-22T08:28:56.345Z,15.83
2023-05-22T08:30:29.061Z,16.33
2023-05-22T08:32:03.322Z,15.97
2023-05-22T08:33:36.089Z,15.77
2023-05-22T08:35:09.447Z,16.90
2023-05-22T08:36:42.242Z,15.53
2023-05-22T08:38:16.227Z,16.37
2023-05-22T08:39:48.998Z,15.17
2023-05-22T08:41:21.816Z,14.20
2023-05-22T08:42:57.338Z,15.23
2023-05-22T08:44:30.205Z,13.90
2023-05-22T08:46:05.866Z,15.90
2023-05-22T08:47:41.714Z,16.43
2023-05-22T08:49:14.553Z,15.87
2023-05-22T08:50:48.560Z,16.80
2023-05-22T08:52:23.707Z,18.73
2023-05-22T08:53:58.000Z,19.37
2023-05-22T08:55:31.790Z,19.53
2023-05-22T08:57:05.403Z,16.90
2023-05-22T08:58:39.071Z,15.80
2023-05-22T09:00:13.042Z,19.80
2023-05-22T09:01:46.532Z,16.13
2023-05-22T09:03:21.494Z,17.53
2023-05-22T09:04:54.550Z,16.47
2023-05-22T09:06:28.994Z,15.37
2023-05-22T09:08:16.086Z,16.37
2023-05-22T09:09:52.211Z,18.40
2023-05-22T09:11:26.078Z,16.30
2023-05-22T09:13:03.701Z,17.17
2023-05-22T09:14:40.307Z,16.83
2023-05-22T09:16:14.418Z,17.20
2023-05-22T09:17:47.476Z,15.67
2023-05-22T09:19:21.933Z,15.87
2023-05-22T09:20:54.756Z,17.27
2023-05-22T09:22:37.847Z,16.07
2023-05-22T09:24:10.948Z,16.97
2023-05-22T09:25:43.992Z,17.47
2023-05-22T09:27:16.841Z,17.80
2023-05-22T09:28:49.586Z,16.70
2023-05-22T09:30:22.478Z,16.90
2023-05-22T09:31:55.582Z,17.23
2023-05-22T09:33:28.546Z,15.07
2023-05-22T09:35:06.733Z,18.83
2023-05-22T09:36:39.464Z,15.83
2023-05-22T09:38:12.533Z,15.77
2023-05-22T09:39:46.385Z,15.07
2023-05-22T09:41:23.147Z,15.97
2023-05-22T09:42:55.988Z,15.17
2023-05-22T09:44:30.922Z,15.23
2023-05-22T09:46:05.081Z,16.80
2023-05-22T09:47:38.109Z,15.07
2023-05-22T09:49:13.249Z,15.20
2023-05-22T09:50:49.680Z,16.37
2023-05-22T09:52:24.806Z,15.60
2023-05-22T09:54:06.373Z,15.23
2023-05-22T09:55:39.903Z,15.33
2023-05-22T09:57:18.201Z,15.17
2023-05-22T09:58:52.969Z,19.17
2023-05-22T10:00:28.034Z,18.63
2023-05-22T10:02:02.085Z,17.73
2023-05-22T10:03:36.314Z,16.80
2023-05-22T10:05:10.535Z,16.23
2023-05-22T10:06:49.631Z,15.77
2023-05-22T10:08:24.488Z,17.73
2023-05-22T10:10:03.835Z,17.67
2023-05-22T10:11:36.928Z,18.27
2023-05-22T10:13:11.375Z,18.53
2023-05-22T10:14:44.802Z,16.77
2023-05-22T10:16:17.935Z,17.90
2023-05-22T10:17:51.474Z,16.23
2023-05-22T10:19:27.088Z,17.73
2023-05-22T10:21:02.441Z,17.20
2023-05-22T10:22:38.302Z,17.10
2023-05-22T10:24:11.933Z,17.40
2023-05-22T10:25:45.543Z,17.37
2023-05-22T10:27:18.419Z,16.77
2023-05-22T10:28:57.167Z,17.33
2023-05-22T10:30:37.481Z,16.73
2023-05-22T10:32:17.977Z,17.20
2023-05-22T10:33:57.161Z,17.30
2023-05-22T10:35:48.354Z,14.90
2023-05-22T10:37:37.211Z,15.47
2023-05-22T10:39:27.193Z,14.40
2023-05-22T10:41:00.805Z,15.40
2023-05-22T10:42:34.111Z,16.00
2023-05-22T10:44:07.522Z,16.00
2023-05-22T10:45:43.080Z,15.30
2023-05-22T10:47:16.689Z,13.60
2023-05-22T10:48:50.802Z,16.00
2023-05-22T10:50:23.615Z,15.57
2023-05-22T10:51:57.949Z,13.67
2023-05-22T10:53:33.424Z,12.60
2023-05-22T10:55:11.692Z,13.70
2023-05-22T10:56:45.466Z,14.40
2023-05-22T10:58:18.939Z,13.73
2023-05-22T10:59:51.746Z,12.63
2023-05-22T11:01:27.553Z,14.73
2023-05-22T11:03:17.155Z,14.23
2023-05-22T11:04:50.743Z,14.90
2023-05-22T11:06:37.360Z,14.03
2023-05-22T11:08:28.725Z,14.87
2023-05-22T11:10:01.891Z,14.73
2023-05-22T11:11:36.005Z,14.77
2023-05-22T11:13:13.049Z,13.80
2023-05-22T11:14:50.907Z,14.27
2023-05-22T11:16:23.715Z,15.43
2023-05-22T11:18:04.115Z,15.10
2023-05-22T11:19:37.007Z,17.10
2023-05-22T11:21:13.664Z,17.87
2023-05-22T11:22:52.448Z,14.33
2023-05-22T11:24:25.252Z,13.67
2023-05-22T11:26:17.809Z,14.23
2023-05-22T11:27:52.064Z,14.77
2023-05-22T11:29:25.267Z,14.93
2023-05-22T11:30:58.788Z,14.53
2023-05-22T11:32:31.854Z,15.27
2023-05-22T11:34:04.828Z,14.70
2023-05-22T11:35:38.532Z,14.57
2023-05-22T11:37:11.715Z,14.17
2023-05-22T11:38:44.728Z,14.97
2023-05-22T11:40:19.003Z,15.17
2023-05-22T11:41:51.783Z,13.30
2023-05-22T11:43:34.308Z,14.50
2023-05-22T11:45:08.167Z,15.13
2023-05-22T11:46:41.864Z,14.70
2023-05-22T11:48:15.675Z,15.27
2023-05-22T11:49:48.679Z,13.80
2023-05-22T11:51:21.731Z,13.73
2023-05-22T11:52:56.176Z,13.97
2023-05-22T11:54:33.033Z,13.90
2023-05-22T11:56:06.811Z,14.07
2023-05-22T11:57:39.893Z,13.77
2023-05-22T11:59:13.984Z,14.80
2023-05-22T12:00:46.785Z,15.53
2023-05-22T12:02:20.054Z,14.37
2023-05-22T12:03:52.976Z,15.03
2023-05-22T12:05:25.808Z,14.27
2023-05-22T12:06:58.805Z,13.87
2023-05-22T12:08:31.854Z,14.43
2023-05-22T12:10:07.228Z,15.07
2023-05-22T12:11:40.073Z,15.27
2023-05-22T12:13:13.235Z,15.53
2023-05-22T12:14:48.078Z,15.73
2023-05-22T12:16:22.816Z,15.20
2023-05-22T12:17:56.743Z,14.43
2023-05-22T12:19:29.739Z,14.10
2023-05-22T12:21:02.651Z,15.57
2023-05-22T12:22:41.500Z,14.70
2023-05-22T12:24:14.220Z,14.57
2023-05-22T12:25:46.963Z,14.70
2023-05-22T12:27:19.731Z,14.67
2023-05-22T12:28:55.230Z,14.50
2023-05-22T12:30:29.454Z,14.13
2023-05-22T12:32:04.649Z,14.97
2023-05-22T12:33:40.267Z,14.67
2023-05-22T12:35:16.985Z,13.60
2023-05-22T12:36:49.883Z,13.87
2023-05-22T12:38:23.234Z,14.00
2023-05-22T12:39:57.229Z,14.20
2023-05-22T12:41:30.017Z,13.73
2023-05-22T12:43:02.803Z,14.53
2023-05-22T12:44:35.544Z,14.67
2023-05-22T12:46:09.643Z,14.87
2023-05-22T12:47:42.489Z,15.63
2023-05-22T12:49:15.271Z,13.87
2023-05-22T12:50:48.227Z,14.30
2023-05-22T12:52:20.991Z,14.53
2023-05-22T12:53:53.946Z,13.93
2023-05-22T12:55:26.698Z,15.63
2023-05-22T12:56:59.449Z,15.60
2023-05-22T12:58:32.178Z,14.20
2023-05-22T13:00:05.886Z,14.67
2023-05-22T13:01:40.051Z,14.00
2023-05-22T13:03:13.101Z,14.47
2023-05-22T13:04:45.853Z,14.67
2023-05-22T13:06:18.793Z,15.83
2023-05-22T13:07:51.592Z,14.77
2023-05-22T13:09:24.389Z,13.47
2023-05-22T13:10:57.315Z,14.70
2023-05-22T13:12:31.450Z,14.70
2023-05-22T13:14:04.311Z,13.60
2023-05-22T13:15:37.142Z,15.10
2023-05-22T13:17:11.695Z,13.77
2023-05-22T13:18:44.496Z,14.20
2023-05-22T13:20:17.328Z,14.07
2023-05-22T13:21:50.073Z,14.83
2023-05-22T13:23:22.964Z,14.27
2023-05-22T13:24:55.697Z,13.60
2023-05-22T13:26:28.428Z,14.00
2023-05-22T13:28:01.971Z,14.77
2023-05-22T13:29:34.776Z,14.40
2023-05-22T13:31:07.523Z,14.70
2023-05-22T13:32:41.675Z,14.33
2023-05-22T13:34:14.589Z,14.67
2023-05-22T13:35:47.350Z,15.00
2023-05-22T13:37:20.100Z,16.17
2023-05-22T13:38:52.882Z,15.60
2023-05-22T13:40:25.776Z,15.30
2023-05-22T13:41:57.614Z,14.07
2023-05-22T13:43:30.393Z,15.00
2023-05-22T13:45:03.465Z,14.87
2023-05-22T13:46:37.942Z,14.50
2023-05-22T13:48:13.627Z,14.97
2023-05-22T13:49:46.807Z,15.80
2023-05-22T13:51:19.527Z,14.67
2023-05-22T13:52:53.512Z,15.60
2023-05-22T13:54:26.340Z,15.07
2023-05-22T13:55:59.186Z,14.83
2023-05-22T13:57:31.938Z,15.10
2023-05-22T13:59:06.035Z,14.73
2023-05-22T14:00:40.535Z,15.50
2023-05-22T14:02:13.442Z,14.47
2023-05-22T14:03:47.583Z,14.90
2023-05-22T14:05:20.363Z,15.10
2023-05-22T14:06:53.230Z,14.67
2023-05-22T14:08:26.075Z,14.73
2023-05-22T14:10:00.537Z,15.67
2023-05-22T14:11:34.220Z,15.23
2023-05-22T14:13:07.012Z,15.53
2023-05-22T14:14:39.745Z,15.47
2023-05-22T14:16:12.474Z,14.90
2023-05-22T14:17:45.412Z,14.53
2023-05-22T14:19:19.817Z,14.93
2023-05-22T14:20:52.598Z,14.37
2023-05-22T14:22:25.473Z,15.67
2023-05-22T14:23:58.285Z,14.13
2023-05-22T14:25:31.077Z,14.63
2023-05-22T14:27:02.848Z,14.37
2023-05-22T14:28:36.203Z,14.20
2023-05-22T14:30:13.340Z,13.40
2023-05-22T14:31:50.477Z,14.70
2023-05-22T14:33:24.151Z,15.00
2023-05-22T14:34:58.231Z,14.90
2023-05-22T14:36:31.215Z,14.93
2023-05-22T14:38:04.017Z,14.30
2023-05-22T14:39:36.834Z,14.83
2023-05-22T14:41:10.541Z,15.00
2023-05-22T14:42:43.344Z,14.93
2023-05-22T14:44:16.381Z,14.80
2023-05-22T14:45:49.109Z,15.03
2023-05-22T14:47:21.891Z,15.93
2023-05-22T14:48:54.798Z,15.60
2023-05-22T14:50:28.891Z,15.27
2023-05-22T14:52:01.735Z,14.03
2023-05-22T14:53:33.548Z,16.93
2023-05-22T14:55:06.947Z,14.17
2023-05-22T14:56:39.693Z,14.77
2023-05-22T14:58:12.453Z,15.33
2023-05-22T14:59:45.229Z,15.27
2023-05-22T15:01:17.981Z,15.63
2023-05-22T15:02:50.898Z,16.20
2023-05-22T15:04:24.693Z,14.67
2023-05-22T15:05:58.912Z,15.70
2023-05-22T15:07:43.250Z,15.20
2023-05-22T15:09:17.968Z,16.73
2023-05-22T15:10:50.835Z,16.10
2023-05-22T15:12:23.569Z,18.90
2023-05-22T15:13:56.415Z,15.60
2023-05-22T15:15:29.202Z,15.57
2023-05-22T15:17:02.352Z,15.67
2023-05-22T15:18:35.104Z,15.50
2023-05-22T15:20:09.185Z,15.57
2023-05-22T15:21:43.277Z,15.73
2023-05-22T15:23:16.384Z,19.37
2023-05-22T15:24:49.246Z,16.13
2023-05-22T15:26:22.281Z,15.87
2023-05-22T15:27:55.014Z,16.47
2023-05-22T15:29:28.837Z,16.53
2023-05-22T15:31:01.592Z,16.17
2023-05-22T15:32:34.512Z,16.47
2023-05-22T15:34:07.327Z,15.93
2023-05-22T15:35:40.835Z,15.90
2023-05-22T15:37:15.180Z,15.57
2023-05-22T15:38:47.908Z,16.13
2023-05-22T15:40:22.485Z,16.80
2023-05-22T15:42:05.916Z,15.23
2023-05-22T15:43:39.397Z,16.83
2023-05-22T15:45:12.407Z,15.63
2023-05-22T15:46:45.113Z,15.87
2023-05-22T15:48:17.888Z,15.83
2023-05-22T15:49:50.767Z,15.87
2023-05-22T15:51:23.514Z,22.67
2023-05-22T15:52:57.602Z,23.17
2023-05-22T15:54:30.507Z,23.80
2023-05-22T15:56:03.281Z,23.17
2023-05-22T15:57:36.027Z,23.40
2023-05-22T15:59:08.791Z,23.83
2023-05-22T16:00:41.617Z,29.63
2023-05-22T16:02:14.978Z,33.87
2023-05-22T16:03:47.910Z,29.33
2023-05-22T16:05:20.790Z,27.77
2023-05-22T16:06:53.539Z,35.10
2023-05-22T16:08:27.899Z,32.90
2023-05-22T16:10:00.704Z,32.97
2023-05-22T16:11:33.516Z,33.40
2023-05-22T16:13:06.410Z,29.97
2023-05-22T16:14:40.205Z,29.40
2023-05-22T16:16:13.414Z,31.23
2023-05-22T16:17:46.588Z,31.93
2023-05-22T16:19:19.455Z,27.50
2023-05-22T16:20:52.488Z,28.07
2023-05-22T16:22:33.061Z,23.73
2023-05-22T16:24:14.670Z,24.07
2023-05-22T16:25:48.903Z,21.00
2023-05-22T16:27:22.926Z,20.60
2023-05-22T16:28:55.794Z,20.37
2023-05-22T16:30:28.678Z,23.00
2023-05-22T16:32:01.536Z,23.10
2023-05-22T16:33:36.286Z,22.03
2023-05-22T16:35:09.837Z,25.47
2023-05-22T16:36:42.594Z,24.03
2023-05-22T16:38:15.439Z,26.27
2023-05-22T16:39:49.510Z,25.60
2023-05-22T16:41:22.832Z,27.07
2023-05-22T16:42:55.782Z,27.03
2023-05-22T16:44:28.649Z,30.63
2023-05-22T16:46:01.390Z,26.10
2023-05-22T16:47:34.218Z,29.93
2023-05-22T16:49:06.984Z,31.90
2023-05-22T16:50:42.374Z,29.60
2023-05-22T16:52:16.274Z,29.37
2023-05-22T16:53:51.161Z,26.23
2023-05-22T16:55:25.253Z,25.37
2023-05-22T16:56:58.075Z,29.37
2023-05-22T16:58:32.394Z,29.77
2023-05-22T17:00:06.753Z,26.80
2023-05-22T17:01:39.622Z,29.60
2023-05-22T17:03:13.395Z,27.10
2023-05-22T17:04:47.249Z,26.70
2023-05-22T17:06:21.172Z,29.70
2023-05-22T17:07:53.991Z,30.50
2023-05-22T17:09:27.456Z,28.50
2023-05-22T17:11:01.536Z,30.03
2023-05-22T17:12:34.284Z,28.07
2023-05-22T17:14:07.090Z,33.37
2023-05-22T17:15:39.996Z,32.80
2023-05-22T17:17:12.857Z,30.63
2023-05-22T17:18:45.658Z,28.27
2023-05-22T17:20:18.880Z,31.23
2023-05-22T17:21:52.053Z,31.80
2023-05-22T17:23:24.854Z,27.57
2023-05-22T17:24:57.594Z,29.20
2023-05-22T17:26:33.176Z,27.83
2023-05-22T17:28:05.918Z,28.50
2023-05-22T17:29:38.726Z,31.60
2023-05-22T17:31:11.525Z,32.80
2023-05-22T17:32:45.012Z,32.57
2023-05-22T17:34:17.897Z,31.30
2023-05-22T17:35:50.916Z,33.43
2023-05-22T17:37:23.641Z,32.60
2023-05-22T17:38:56.377Z,32.63
2023-05-22T17:40:40.504Z,33.33
2023-05-22T17:42:17.846Z,34.77
2023-05-22T17:43:50.600Z,31.60
2023-05-22T17:45:23.479Z,28.57
2023-05-22T17:46:56.235Z,28.30
2023-05-22T17:48:29.006Z,31.97
2023-05-22T17:50:02.039Z,31.20
2023-05-22T17:51:34.918Z,30.13
2023-05-22T17:53:07.688Z,29.87
2023-05-22T17:54:40.536Z,31.03
2023-05-22T17:56:13.330Z,30.43
2023-05-22T17:57:47.482Z,32.10
2023-05-22T17:59:20.317Z,31.93
2023-05-22T18:00:53.198Z,27.80
2023-05-22T18:02:26.449Z,28.90
2023-05-22T18:03:59.954Z,27.97
2023-05-22T18:05:32.961Z,27.03
2023-05-22T18:07:05.996Z,28.93
2023-05-22T18:08:39.916Z,29.80
2023-05-22T18:10:13.079Z,29.23
2023-05-22T18:11:45.829Z,30.53
2023-05-22T18:13:20.125Z,33.07
2023-05-22T18:14:52.882Z,28.97
2023-05-22T18:16:25.674Z,27.13
2023-05-22T18:17:58.612Z,32.73
2023-05-22T18:19:31.445Z,30.10
2023-05-22T18:21:04.572Z,30.73
2023-05-22T18:22:38.130Z,27.27
2023-05-22T18:24:11.077Z,26.77
2023-05-22T18:25:43.830Z,31.17
2023-05-22T18:27:16.578Z,29.83
2023-05-22T18:28:50.633Z,34.33
2023-05-22T18:30:22.465Z,30.43
2023-05-22T18:31:55.318Z,30.50
2023-05-22T18:33:28.178Z,31.73
2023-05-22T18:35:03.448Z,32.43
2023-05-22T18:36:36.198Z,30.90
2023-05-22T18:38:08.944Z,31.23
2023-05-22T18:39:41.680Z,34.20
2023-05-22T18:41:14.484Z,33.10
2023-05-22T18:42:47.221Z,27.27
2023-05-22T18:44:21.314Z,29.70
2023-05-22T18:45:55.710Z,29.83
2023-05-22T18:47:28.485Z,30.20
2023-05-22T18:49:01.793Z,32.10
2023-05-22T18:50:34.549Z,30.83
2023-05-22T18:52:07.338Z,28.57
2023-05-22T18:53:40.424Z,31.43
2023-05-22T18:55:13.269Z,30.43
2023-05-22T18:56:46.043Z,31.17
2023-05-22T18:58:18.814Z,29.83
2023-05-22T18:59:52.928Z,28.87
2023-05-22T19:01:26.093Z,30.40
2023-05-22T19:02:59.246Z,31.97
2023-05-22T19:04:32.047Z,30.73
2023-05-22T19:06:05.471Z,31.53
2023-05-22T19:07:38.217Z,28.17
2023-05-22T19:09:11.367Z,29.53
2023-05-22T19:10:44.192Z,28.17
2023-05-22T19:12:17.009Z,30.13
2023-05-22T19:13:49.752Z,32.10
2023-05-22T19:15:25.521Z,28.07
2023-05-22T19:16:59.604Z,29.67
2023-05-22T19:18:32.413Z,33.57
2023-05-22T19:20:07.357Z,29.13
2023-05-22T19:21:40.158Z,30.63
2023-05-22T19:23:13.724Z,32.47
2023-05-22T19:24:46.531Z,31.87
2023-05-22T19:26:19.429Z,30.40
2023-05-22T19:27:52.181Z,33.07
2023-05-22T19:29:24.955Z,28.67
2023-05-22T19:31:00.011Z,34.90
2023-05-22T19:32:32.823Z,28.93
2023-05-22T19:34:05.782Z,33.13
2023-05-22T19:35:38.696Z,32.37
2023-05-22T19:37:11.536Z,30.10
2023-05-22T19:38:44.289Z,27.80
2023-05-22T19:40:17.186Z,29.47
2023-05-22T19:41:50.979Z,29.30
2023-05-22T19:43:23.727Z,30.83
2023-05-22T19:44:56.501Z,29.80
2023-05-22T19:46:30.644Z,31.87
2023-05-22T19:48:03.653Z,34.30
2023-05-22T19:49:37.271Z,37.10
2023-05-22T19:51:10.252Z,31.70
2023-05-22T19:52:42.998Z,35.40
2023-05-22T19:54:15.788Z,36.43
2023-05-22T19:55:48.553Z,34.50
2023-05-22T19:57:21.350Z,32.20
2023-05-22T19:58:54.079Z,29.77
2023-05-22T20:00:28.405Z,33.93
2023-05-22T20:02:02.540Z,36.97
2023-05-22T20:03:35.610Z,38.37
2023-05-22T20:05:12.702Z,35.77
2023-05-22T20:06:45.461Z,38.00
2023-05-22T20:08:18.798Z,43.43
2023-05-22T20:09:51.552Z,40.73